sensor_id;sensor_type;location;lat;lon;timestamp;P1;durP1;ratioP1;P2;durP2;ratioP2
47153;SDS011;32907;41.412;2.164;2023-07-31T00:02:04;3.63;;;0.90;;
47153;SDS011;32907;41.412;2.164;2023-07-31T00:04:32;3.60;;;1.10;;
47153;SDS011;32907;41.412;2.164;2023-07-31T00:07:00;2.47;;;0.90;;
47153;SDS011;32907;41.412;2.164;2023-07-31T00:09:28;3.78;;;1.25;;
47153;SDS011;32907;41.412;2.164;2023-07-31T00:11:56;3.58;;;0.93;;
47153;SDS011;32907;41.412;2.164;2023-07-31T00:14:24;3.15;;;0.80;;
47153;SDS011;32907;41.412;2.164;2023-07-31T00:16:51;3.88;;;1.17;;
47153;SDS011;32907;41.412;2.164;2023-07-31T00:19:19;3.83;;;1.20;;
47153;SDS011;32907;41.412;2.164;2023-07-31T00:21:47;1.95;;;0.85;;
47153;SDS011;32907;41.412;2.164;2023-07-31T00:24:15;3.45;;;1.00;;
47153;SDS011;32907;41.412;2.164;2023-07-31T00:26:43;3.05;;;0.70;;
47153;SDS011;32907;41.412;2.164;2023-07-31T00:29:11;2.88;;;0.95;;
47153;SDS011;32907;41.412;2.164;2023-07-31T00:31:38;2.10;;;0.70;;
47153;SDS011;32907;41.412;2.164;2023-07-31T00:34:06;3.70;;;0.80;;
47153;SDS011;32907;41.412;2.164;2023-07-31T00:36:35;2.55;;;1.23;;
47153;SDS011;32907;41.412;2.164;2023-07-31T00:39:04;1.85;;;0.70;;
47153;SDS011;32907;41.412;2.164;2023-07-31T00:41:32;1.52;;;0.70;;
47153;SDS011;32907;41.412;2.164;2023-07-31T00:44:01;2.80;;;1.00;;
47153;SDS011;32907;41.412;2.164;2023-07-31T00:46:29;1.65;;;0.60;;
47153;SDS011;32907;41.412;2.164;2023-07-31T00:48:57;2.00;;;0.95;;
47153;SDS011;32907;41.412;2.164;2023-07-31T00:51:25;1.10;;;0.57;;
47153;SDS011;32907;41.412;2.164;2023-07-31T00:53:52;2.20;;;0.70;;
47153;SDS011;32907;41.412;2.164;2023-07-31T00:56:22;1.52;;;0.88;;
47153;SDS011;32907;41.412;2.164;2023-07-31T00:58:51;1.30;;;0.80;;
47153;SDS011;32907;41.412;2.164;2023-07-31T01:01:19;2.35;;;0.82;;
47153;SDS011;32907;41.412;2.164;2023-07-31T01:03:47;2.10;;;0.88;;
47153;SDS011;32907;41.412;2.164;2023-07-31T01:06:25;2.83;;;1.00;;
47153;SDS011;32907;41.412;2.164;2023-07-31T01:09:18;1.27;;;0.63;;
47153;SDS011;32907;41.412;2.164;2023-07-31T01:12:09;3.20;;;0.82;;
47153;SDS011;32907;41.412;2.164;2023-07-31T01:14:52;1.52;;;0.60;;
47153;SDS011;32907;41.412;2.164;2023-07-31T01:17:30;1.48;;;0.60;;
47153;SDS011;32907;41.412;2.164;2023-07-31T01:20:00;1.63;;;0.75;;
47153;SDS011;32907;41.412;2.164;2023-07-31T01:31:38;2.05;;;0.90;;
47153;SDS011;32907;41.412;2.164;2023-07-31T01:34:08;1.55;;;0.65;;
47153;SDS011;32907;41.412;2.164;2023-07-31T01:36:37;1.15;;;0.60;;
47153;SDS011;32907;41.412;2.164;2023-07-31T01:39:06;1.63;;;0.77;;
47153;SDS011;32907;41.412;2.164;2023-07-31T01:41:34;1.92;;;0.63;;
47153;SDS011;32907;41.412;2.164;2023-07-31T01:44:02;0.70;;;0.50;;
47153;SDS011;32907;41.412;2.164;2023-07-31T01:46:30;2.90;;;0.70;;
47153;SDS011;32907;41.412;2.164;2023-07-31T01:48:58;2.65;;;0.75;;
47153;SDS011;32907;41.412;2.164;2023-07-31T01:51:26;0.93;;;0.50;;
47153;SDS011;32907;41.412;2.164;2023-07-31T01:53:54;1.13;;;0.70;;
47153;SDS011;32907;41.412;2.164;2023-07-31T01:56:22;1.67;;;0.60;;
47153;SDS011;32907;41.412;2.164;2023-07-31T01:58:49;1.27;;;0.52;;
47153;SDS011;32907;41.412;2.164;2023-07-31T02:01:17;0.65;;;0.43;;
47153;SDS011;32907;41.412;2.164;2023-07-31T02:03:45;1.10;;;0.60;;
47153;SDS011;32907;41.412;2.164;2023-07-31T02:06:14;1.42;;;0.60;;
47153;SDS011;32907;41.412;2.164;2023-07-31T02:08:43;1.73;;;0.80;;
47153;SDS011;32907;41.412;2.164;2023-07-31T02:11:12;1.63;;;0.50;;
47153;SDS011;32907;41.412;2.164;2023-07-31T02:13:40;0.98;;;0.60;;
47153;SDS011;32907;41.412;2.164;2023-07-31T02:16:08;0.85;;;0.50;;
47153;SDS011;32907;41.412;2.164;2023-07-31T02:18:36;0.88;;;0.57;;
47153;SDS011;32907;41.412;2.164;2023-07-31T02:21:04;0.85;;;0.52;;
47153;SDS011;32907;41.412;2.164;2023-07-31T02:23:32;1.05;;;0.40;;
47153;SDS011;32907;41.412;2.164;2023-07-31T02:26:00;1.27;;;0.52;;
47153;SDS011;32907;41.412;2.164;2023-07-31T02:28:28;1.05;;;0.63;;
47153;SDS011;32907;41.412;2.164;2023-07-31T02:30:57;1.17;;;0.55;;
47153;SDS011;32907;41.412;2.164;2023-07-31T02:33:25;1.27;;;0.77;;
47153;SDS011;32907;41.412;2.164;2023-07-31T02:35:54;1.42;;;0.50;;
47153;SDS011;32907;41.412;2.164;2023-07-31T02:38:22;1.08;;;0.50;;
47153;SDS011;32907;41.412;2.164;2023-07-31T02:40:50;1.17;;;0.50;;
47153;SDS011;32907;41.412;2.164;2023-07-31T02:43:18;1.10;;;0.50;;
47153;SDS011;32907;41.412;2.164;2023-07-31T02:45:50;1.38;;;0.70;;
47153;SDS011;32907;41.412;2.164;2023-07-31T02:48:19;0.98;;;0.50;;
47153;SDS011;32907;41.412;2.164;2023-07-31T02:50:47;1.42;;;0.50;;
47153;SDS011;32907;41.412;2.164;2023-07-31T02:53:15;0.80;;;0.47;;
47153;SDS011;32907;41.412;2.164;2023-07-31T02:55:43;0.90;;;0.60;;
47153;SDS011;32907;41.412;2.164;2023-07-31T02:58:11;1.20;;;0.50;;
47153;SDS011;32907;41.412;2.164;2023-07-31T03:00:43;1.00;;;0.65;;
47153;SDS011;32907;41.412;2.164;2023-07-31T03:03:11;2.20;;;0.50;;
47153;SDS011;32907;41.412;2.164;2023-07-31T03:05:39;0.82;;;0.52;;
47153;SDS011;32907;41.412;2.164;2023-07-31T03:08:07;0.90;;;0.50;;
47153;SDS011;32907;41.412;2.164;2023-07-31T03:10:35;0.88;;;0.57;;
47153;SDS011;32907;41.412;2.164;2023-07-31T03:13:04;1.25;;;0.60;;
47153;SDS011;32907;41.412;2.164;2023-07-31T03:15:32;1.35;;;0.60;;
47153;SDS011;32907;41.412;2.164;2023-07-31T03:18:00;1.33;;;0.70;;
47153;SDS011;32907;41.412;2.164;2023-07-31T03:20:28;0.80;;;0.60;;
47153;SDS011;32907;41.412;2.164;2023-07-31T03:22:56;0.90;;;0.50;;
47153;SDS011;32907;41.412;2.164;2023-07-31T03:25:24;0.85;;;0.60;;
47153;SDS011;32907;41.412;2.164;2023-07-31T03:27:52;1.45;;;0.50;;
47153;SDS011;32907;41.412;2.164;2023-07-31T03:30:21;1.15;;;0.50;;
47153;SDS011;32907;41.412;2.164;2023-07-31T03:32:49;0.82;;;0.60;;
47153;SDS011;32907;41.412;2.164;2023-07-31T03:35:17;1.05;;;0.60;;
47153;SDS011;32907;41.412;2.164;2023-07-31T03:37:45;0.82;;;0.50;;
47153;SDS011;32907;41.412;2.164;2023-07-31T03:40:13;0.80;;;0.65;;
47153;SDS011;32907;41.412;2.164;2023-07-31T03:42:40;1.85;;;0.82;;
47153;SDS011;32907;41.412;2.164;2023-07-31T03:45:08;1.00;;;0.50;;
47153;SDS011;32907;41.412;2.164;2023-07-31T03:47:37;1.10;;;0.60;;
47153;SDS011;32907;41.412;2.164;2023-07-31T03:50:05;1.33;;;0.60;;
47153;SDS011;32907;41.412;2.164;2023-07-31T03:52:34;1.42;;;0.50;;
47153;SDS011;32907;41.412;2.164;2023-07-31T03:55:04;1.25;;;0.98;;
47153;SDS011;32907;41.412;2.164;2023-07-31T03:57:32;1.20;;;0.55;;
47153;SDS011;32907;41.412;2.164;2023-07-31T04:00:00;1.45;;;0.60;;
47153;SDS011;32907;41.412;2.164;2023-07-31T04:02:38;1.05;;;0.60;;
47153;SDS011;32907;41.412;2.164;2023-07-31T04:05:06;1.98;;;0.90;;
47153;SDS011;32907;41.412;2.164;2023-07-31T04:07:35;1.35;;;0.75;;
47153;SDS011;32907;41.412;2.164;2023-07-31T04:10:03;1.17;;;0.70;;
47153;SDS011;32907;41.412;2.164;2023-07-31T04:12:31;1.00;;;0.60;;
47153;SDS011;32907;41.412;2.164;2023-07-31T04:14:59;0.90;;;0.60;;
47153;SDS011;32907;41.412;2.164;2023-07-31T04:17:27;1.02;;;0.70;;
47153;SDS011;32907;41.412;2.164;2023-07-31T04:19:55;2.35;;;0.70;;
47153;SDS011;32907;41.412;2.164;2023-07-31T04:22:23;1.00;;;0.70;;
47153;SDS011;32907;41.412;2.164;2023-07-31T04:24:50;1.23;;;0.70;;
47153;SDS011;32907;41.412;2.164;2023-07-31T04:27:18;1.95;;;0.80;;
47153;SDS011;32907;41.412;2.164;2023-07-31T04:29:46;1.10;;;0.70;;
47153;SDS011;32907;41.412;2.164;2023-07-31T04:32:14;0.90;;;0.65;;
47153;SDS011;32907;41.412;2.164;2023-07-31T04:34:46;2.50;;;1.05;;
47153;SDS011;32907;41.412;2.164;2023-07-31T04:37:14;1.30;;;0.85;;
47153;SDS011;32907;41.412;2.164;2023-07-31T04:39:42;2.47;;;1.17;;
47153;SDS011;32907;41.412;2.164;2023-07-31T04:42:10;2.55;;;1.50;;
47153;SDS011;32907;41.412;2.164;2023-07-31T04:44:38;2.22;;;1.42;;
47153;SDS011;32907;41.412;2.164;2023-07-31T04:47:06;2.88;;;1.45;;
47153;SDS011;32907;41.412;2.164;2023-07-31T04:49:34;2.40;;;1.52;;
47153;SDS011;32907;41.412;2.164;2023-07-31T04:52:02;2.67;;;1.48;;
47153;SDS011;32907;41.412;2.164;2023-07-31T04:54:30;2.78;;;1.58;;
47153;SDS011;32907;41.412;2.164;2023-07-31T04:56:58;1.98;;;1.52;;
47153;SDS011;32907;41.412;2.164;2023-07-31T04:59:27;3.50;;;1.95;;
47153;SDS011;32907;41.412;2.164;2023-07-31T05:01:55;2.78;;;1.63;;
47153;SDS011;32907;41.412;2.164;2023-07-31T05:04:22;2.05;;;1.33;;
47153;SDS011;32907;41.412;2.164;2023-07-31T05:06:51;2.72;;;1.60;;
47153;SDS011;32907;41.412;2.164;2023-07-31T05:09:18;1.60;;;1.30;;
47153;SDS011;32907;41.412;2.164;2023-07-31T05:11:47;3.22;;;1.40;;
47153;SDS011;32907;41.412;2.164;2023-07-31T05:14:15;2.03;;;1.20;;
47153;SDS011;32907;41.412;2.164;2023-07-31T05:16:43;2.55;;;1.35;;
47153;SDS011;32907;41.412;2.164;2023-07-31T05:19:11;2.92;;;1.20;;
47153;SDS011;32907;41.412;2.164;2023-07-31T05:21:39;3.03;;;1.20;;
47153;SDS011;32907;41.412;2.164;2023-07-31T05:24:07;3.10;;;1.23;;
47153;SDS011;32907;41.412;2.164;2023-07-31T05:26:35;2.85;;;1.23;;
47153;SDS011;32907;41.412;2.164;2023-07-31T05:29:03;3.33;;;1.20;;
47153;SDS011;32907;41.412;2.164;2023-07-31T05:31:31;3.00;;;1.25;;
47153;SDS011;32907;41.412;2.164;2023-07-31T05:34:00;1.25;;;1.00;;
47153;SDS011;32907;41.412;2.164;2023-07-31T05:36:28;2.10;;;0.90;;
47153;SDS011;32907;41.412;2.164;2023-07-31T05:38:55;3.10;;;1.00;;
47153;SDS011;32907;41.412;2.164;2023-07-31T05:41:23;5.07;;;1.20;;
47153;SDS011;32907;41.412;2.164;2023-07-31T05:43:51;2.65;;;1.20;;
47153;SDS011;32907;41.412;2.164;2023-07-31T05:46:19;1.60;;;0.85;;
47153;SDS011;32907;41.412;2.164;2023-07-31T05:48:47;2.05;;;0.75;;
47153;SDS011;32907;41.412;2.164;2023-07-31T05:51:15;2.20;;;0.80;;
47153;SDS011;32907;41.412;2.164;2023-07-31T05:53:43;2.38;;;0.88;;
47153;SDS011;32907;41.412;2.164;2023-07-31T05:56:11;3.97;;;0.90;;
47153;SDS011;32907;41.412;2.164;2023-07-31T05:58:39;1.85;;;0.85;;
47153;SDS011;32907;41.412;2.164;2023-07-31T06:01:06;8.07;;;2.08;;
47153;SDS011;32907;41.412;2.164;2023-07-31T06:03:34;9.68;;;1.75;;
47153;SDS011;32907;41.412;2.164;2023-07-31T06:06:03;4.18;;;1.45;;
47153;SDS011;32907;41.412;2.164;2023-07-31T06:08:31;5.65;;;1.55;;
47153;SDS011;32907;41.412;2.164;2023-07-31T06:10:59;2.65;;;0.98;;
47153;SDS011;32907;41.412;2.164;2023-07-31T06:13:27;2.72;;;1.00;;
47153;SDS011;32907;41.412;2.164;2023-07-31T06:15:55;2.38;;;1.00;;
47153;SDS011;32907;41.412;2.164;2023-07-31T06:18:23;3.60;;;1.02;;
47153;SDS011;32907;41.412;2.164;2023-07-31T06:20:51;3.40;;;0.90;;
47153;SDS011;32907;41.412;2.164;2023-07-31T06:23:21;3.28;;;1.02;;
47153;SDS011;32907;41.412;2.164;2023-07-31T06:25:49;3.90;;;1.20;;
47153;SDS011;32907;41.412;2.164;2023-07-31T06:28:17;6.25;;;1.30;;
47153;SDS011;32907;41.412;2.164;2023-07-31T06:30:45;3.75;;;1.13;;
47153;SDS011;32907;41.412;2.164;2023-07-31T06:33:13;3.58;;;1.10;;
47153;SDS011;32907;41.412;2.164;2023-07-31T06:35:41;2.05;;;1.15;;
47153;SDS011;32907;41.412;2.164;2023-07-31T06:38:08;3.10;;;1.40;;
47153;SDS011;32907;41.412;2.164;2023-07-31T06:40:36;5.85;;;1.65;;
47153;SDS011;32907;41.412;2.164;2023-07-31T06:43:05;4.55;;;1.63;;
47153;SDS011;32907;41.412;2.164;2023-07-31T06:45:35;3.45;;;1.52;;
47153;SDS011;32907;41.412;2.164;2023-07-31T06:48:04;4.03;;;1.40;;
47153;SDS011;32907;41.412;2.164;2023-07-31T06:50:32;3.35;;;0.90;;
47153;SDS011;32907;41.412;2.164;2023-07-31T06:53:00;2.78;;;0.70;;
47153;SDS011;32907;41.412;2.164;2023-07-31T06:55:28;1.70;;;0.80;;
47153;SDS011;32907;41.412;2.164;2023-07-31T06:57:56;4.60;;;0.93;;
47153;SDS011;32907;41.412;2.164;2023-07-31T07:00:24;2.45;;;1.00;;
47153;SDS011;32907;41.412;2.164;2023-07-31T07:02:52;2.70;;;0.60;;
47153;SDS011;32907;41.412;2.164;2023-07-31T07:05:20;4.38;;;1.00;;
47153;SDS011;32907;41.412;2.164;2023-07-31T07:07:49;1.95;;;0.63;;
47153;SDS011;32907;41.412;2.164;2023-07-31T07:10:20;3.55;;;1.00;;
47153;SDS011;32907;41.412;2.164;2023-07-31T07:12:48;3.22;;;1.10;;
47153;SDS011;32907;41.412;2.164;2023-07-31T07:15:17;6.97;;;1.20;;
47153;SDS011;32907;41.412;2.164;2023-07-31T07:17:45;5.22;;;1.13;;
47153;SDS011;32907;41.412;2.164;2023-07-31T07:20:13;5.63;;;1.50;;
47153;SDS011;32907;41.412;2.164;2023-07-31T07:22:41;7.72;;;1.67;;
47153;SDS011;32907;41.412;2.164;2023-07-31T07:25:11;6.90;;;1.58;;
47153;SDS011;32907;41.412;2.164;2023-07-31T07:27:39;4.95;;;1.70;;
47153;SDS011;32907;41.412;2.164;2023-07-31T07:30:08;7.25;;;1.70;;
47153;SDS011;32907;41.412;2.164;2023-07-31T07:32:36;5.38;;;1.52;;
47153;SDS011;32907;41.412;2.164;2023-07-31T07:35:04;4.70;;;1.60;;
47153;SDS011;32907;41.412;2.164;2023-07-31T07:37:33;5.85;;;1.63;;
47153;SDS011;32907;41.412;2.164;2023-07-31T07:40:01;4.65;;;1.10;;
47153;SDS011;32907;41.412;2.164;2023-07-31T07:42:29;8.30;;;1.60;;
47153;SDS011;32907;41.412;2.164;2023-07-31T07:44:57;2.85;;;1.20;;
47153;SDS011;32907;41.412;2.164;2023-07-31T07:47:25;5.80;;;1.40;;
47153;SDS011;32907;41.412;2.164;2023-07-31T07:49:55;4.53;;;1.42;;
47153;SDS011;32907;41.412;2.164;2023-07-31T07:52:23;3.83;;;1.48;;
47153;SDS011;32907;41.412;2.164;2023-07-31T07:54:51;5.30;;;1.90;;
47153;SDS011;32907;41.412;2.164;2023-07-31T07:57:19;4.65;;;1.40;;
47153;SDS011;32907;41.412;2.164;2023-07-31T07:59:47;3.90;;;1.35;;
47153;SDS011;32907;41.412;2.164;2023-07-31T08:02:15;2.85;;;1.17;;
47153;SDS011;32907;41.412;2.164;2023-07-31T08:04:43;3.67;;;1.25;;
47153;SDS011;32907;41.412;2.164;2023-07-31T08:07:11;2.42;;;1.35;;
47153;SDS011;32907;41.412;2.164;2023-07-31T08:09:42;2.95;;;1.45;;
47153;SDS011;32907;41.412;2.164;2023-07-31T08:12:10;3.88;;;1.48;;
47153;SDS011;32907;41.412;2.164;2023-07-31T08:14:38;3.80;;;1.15;;
47153;SDS011;32907;41.412;2.164;2023-07-31T08:17:06;3.67;;;1.60;;
47153;SDS011;32907;41.412;2.164;2023-07-31T08:19:34;5.07;;;1.80;;
47153;SDS011;32907;41.412;2.164;2023-07-31T08:22:02;2.53;;;1.60;;
47153;SDS011;32907;41.412;2.164;2023-07-31T08:24:30;3.58;;;1.60;;
47153;SDS011;32907;41.412;2.164;2023-07-31T08:26:58;3.60;;;1.75;;
47153;SDS011;32907;41.412;2.164;2023-07-31T08:29:26;3.10;;;1.60;;
47153;SDS011;32907;41.412;2.164;2023-07-31T08:31:54;3.97;;;1.73;;
47153;SDS011;32907;41.412;2.164;2023-07-31T08:34:22;4.32;;;1.70;;
47153;SDS011;32907;41.412;2.164;2023-07-31T08:36:50;4.88;;;1.48;;
47153;SDS011;32907;41.412;2.164;2023-07-31T08:39:18;6.35;;;1.60;;
47153;SDS011;32907;41.412;2.164;2023-07-31T08:41:46;4.38;;;1.70;;
47153;SDS011;32907;41.412;2.164;2023-07-31T08:44:15;3.97;;;1.55;;
47153;SDS011;32907;41.412;2.164;2023-07-31T08:46:44;3.05;;;1.52;;
47153;SDS011;32907;41.412;2.164;2023-07-31T08:49:14;5.97;;;2.10;;
47153;SDS011;32907;41.412;2.164;2023-07-31T08:51:45;8.63;;;1.90;;
47153;SDS011;32907;41.412;2.164;2023-07-31T08:54:14;5.43;;;1.65;;
47153;SDS011;32907;41.412;2.164;2023-07-31T08:56:43;4.38;;;1.67;;
47153;SDS011;32907;41.412;2.164;2023-07-31T08:59:12;5.80;;;1.90;;
47153;SDS011;32907;41.412;2.164;2023-07-31T09:01:46;4.13;;;2.03;;
47153;SDS011;32907;41.412;2.164;2023-07-31T09:04:17;4.65;;;1.83;;
47153;SDS011;32907;41.412;2.164;2023-07-31T09:06:47;5.32;;;2.30;;
47153;SDS011;32907;41.412;2.164;2023-07-31T09:09:15;6.65;;;2.25;;
47153;SDS011;32907;41.412;2.164;2023-07-31T09:11:43;7.68;;;2.47;;
47153;SDS011;32907;41.412;2.164;2023-07-31T09:14:11;11.30;;;2.33;;
47153;SDS011;32907;41.412;2.164;2023-07-31T09:16:54;8.68;;;2.65;;
47153;SDS011;32907;41.412;2.164;2023-07-31T09:19:32;7.70;;;2.30;;
47153;SDS011;32907;41.412;2.164;2023-07-31T09:22:01;13.07;;;2.60;;
47153;SDS011;32907;41.412;2.164;2023-07-31T09:24:30;7.13;;;2.22;;
47153;SDS011;32907;41.412;2.164;2023-07-31T09:27:00;4.50;;;2.00;;
47153;SDS011;32907;41.412;2.164;2023-07-31T09:29:29;6.55;;;2.15;;
47153;SDS011;32907;41.412;2.164;2023-07-31T09:31:57;4.07;;;1.83;;
47153;SDS011;32907;41.412;2.164;2023-07-31T09:34:30;4.75;;;1.60;;
47153;SDS011;32907;41.412;2.164;2023-07-31T09:37:04;4.40;;;1.67;;
47153;SDS011;32907;41.412;2.164;2023-07-31T09:39:33;3.15;;;1.27;;
47153;SDS011;32907;41.412;2.164;2023-07-31T09:42:13;4.30;;;1.40;;
47153;SDS011;32907;41.412;2.164;2023-07-31T09:44:41;4.22;;;1.50;;
47153;SDS011;32907;41.412;2.164;2023-07-31T09:47:30;3.13;;;1.08;;
47153;SDS011;32907;41.412;2.164;2023-07-31T09:49:58;3.20;;;1.15;;
47153;SDS011;32907;41.412;2.164;2023-07-31T09:52:26;2.85;;;1.52;;
47153;SDS011;32907;41.412;2.164;2023-07-31T09:54:54;4.03;;;1.35;;
47153;SDS011;32907;41.412;2.164;2023-07-31T09:57:22;4.07;;;1.50;;
47153;SDS011;32907;41.412;2.164;2023-07-31T09:59:53;2.78;;;1.33;;
47153;SDS011;32907;41.412;2.164;2023-07-31T10:02:22;6.35;;;1.42;;
47153;SDS011;32907;41.412;2.164;2023-07-31T10:04:51;5.35;;;1.58;;
47153;SDS011;32907;41.412;2.164;2023-07-31T10:07:20;3.10;;;1.23;;
47153;SDS011;32907;41.412;2.164;2023-07-31T10:09:53;3.38;;;1.33;;
47153;SDS011;32907;41.412;2.164;2023-07-31T10:12:22;8.75;;;2.22;;
47153;SDS011;32907;41.412;2.164;2023-07-31T10:14:55;5.00;;;1.80;;
47153;SDS011;32907;41.412;2.164;2023-07-31T10:17:24;2.58;;;1.30;;
47153;SDS011;32907;41.412;2.164;2023-07-31T10:19:53;4.30;;;1.48;;
47153;SDS011;32907;41.412;2.164;2023-07-31T10:22:21;2.88;;;1.33;;
47153;SDS011;32907;41.412;2.164;2023-07-31T10:24:49;5.85;;;1.40;;
47153;SDS011;32907;41.412;2.164;2023-07-31T10:27:19;8.15;;;1.90;;
47153;SDS011;32907;41.412;2.164;2023-07-31T10:29:47;4.70;;;1.50;;
47153;SDS011;32907;41.412;2.164;2023-07-31T10:32:17;3.88;;;1.70;;
47153;SDS011;32907;41.412;2.164;2023-07-31T10:34:46;4.32;;;1.98;;
47153;SDS011;32907;41.412;2.164;2023-07-31T10:37:20;5.72;;;2.00;;
47153;SDS011;32907;41.412;2.164;2023-07-31T10:40:06;6.57;;;2.30;;
47153;SDS011;32907;41.412;2.164;2023-07-31T10:45:36;3.90;;;1.88;;
47153;SDS011;32907;41.412;2.164;2023-07-31T10:50:52;4.63;;;2.03;;
47153;SDS011;32907;41.412;2.164;2023-07-31T10:53:24;4.07;;;1.85;;
47153;SDS011;32907;41.412;2.164;2023-07-31T10:55:59;3.13;;;1.80;;
47153;SDS011;32907;41.412;2.164;2023-07-31T10:58:28;4.00;;;1.80;;
47153;SDS011;32907;41.412;2.164;2023-07-31T11:00:56;3.13;;;2.03;;
47153;SDS011;32907;41.412;2.164;2023-07-31T11:03:26;4.13;;;2.40;;
47153;SDS011;32907;41.412;2.164;2023-07-31T11:06:09;4.40;;;2.03;;
47153;SDS011;32907;41.412;2.164;2023-07-31T11:08:50;5.65;;;2.30;;
47153;SDS011;32907;41.412;2.164;2023-07-31T11:11:19;6.80;;;2.58;;
47153;SDS011;32907;41.412;2.164;2023-07-31T11:13:53;12.95;;;6.60;;
47153;SDS011;32907;41.412;2.164;2023-07-31T11:16:25;11.70;;;4.82;;
47153;SDS011;32907;41.412;2.164;2023-07-31T11:18:53;8.82;;;4.43;;
47153;SDS011;32907;41.412;2.164;2023-07-31T11:21:24;7.28;;;3.33;;
47153;SDS011;32907;41.412;2.164;2023-07-31T11:23:53;8.55;;;4.10;;
47153;SDS011;32907;41.412;2.164;2023-07-31T11:26:27;7.57;;;3.10;;
47153;SDS011;32907;41.412;2.164;2023-07-31T11:28:55;6.55;;;2.53;;
47153;SDS011;32907;41.412;2.164;2023-07-31T11:31:23;5.43;;;2.75;;
47153;SDS011;32907;41.412;2.164;2023-07-31T11:33:58;7.97;;;2.90;;
47153;SDS011;32907;41.412;2.164;2023-07-31T11:36:32;12.60;;;4.10;;
47153;SDS011;32907;41.412;2.164;2023-07-31T11:39:07;9.48;;;3.58;;
47153;SDS011;32907;41.412;2.164;2023-07-31T11:41:40;7.75;;;3.72;;
47153;SDS011;32907;41.412;2.164;2023-07-31T11:44:08;10.90;;;3.95;;
47153;SDS011;32907;41.412;2.164;2023-07-31T11:46:57;6.05;;;3.03;;
47153;SDS011;32907;41.412;2.164;2023-07-31T11:49:25;9.25;;;2.78;;
47153;SDS011;32907;41.412;2.164;2023-07-31T11:51:53;10.75;;;5.68;;
47153;SDS011;32907;41.412;2.164;2023-07-31T11:54:22;10.98;;;4.43;;
47153;SDS011;32907;41.412;2.164;2023-07-31T11:56:50;8.20;;;2.95;;
47153;SDS011;32907;41.412;2.164;2023-07-31T11:59:18;8.50;;;3.28;;
47153;SDS011;32907;41.412;2.164;2023-07-31T12:01:46;8.50;;;3.00;;
47153;SDS011;32907;41.412;2.164;2023-07-31T12:04:14;4.78;;;2.35;;
47153;SDS011;32907;41.412;2.164;2023-07-31T12:06:43;6.53;;;2.30;;
47153;SDS011;32907;41.412;2.164;2023-07-31T12:09:11;8.65;;;2.33;;
47153;SDS011;32907;41.412;2.164;2023-07-31T12:11:45;4.72;;;1.80;;
47153;SDS011;32907;41.412;2.164;2023-07-31T12:16:53;4.78;;;2.20;;
47153;SDS011;32907;41.412;2.164;2023-07-31T12:22:00;5.55;;;2.13;;
47153;SDS011;32907;41.412;2.164;2023-07-31T12:24:28;4.03;;;2.22;;
47153;SDS011;32907;41.412;2.164;2023-07-31T12:26:56;5.38;;;2.20;;
47153;SDS011;32907;41.412;2.164;2023-07-31T12:29:33;5.32;;;2.20;;
47153;SDS011;32907;41.412;2.164;2023-07-31T12:32:03;5.20;;;2.28;;
47153;SDS011;32907;41.412;2.164;2023-07-31T12:34:31;6.63;;;2.50;;
47153;SDS011;32907;41.412;2.164;2023-07-31T12:37:11;4.65;;;2.30;;
47153;SDS011;32907;41.412;2.164;2023-07-31T12:39:38;7.13;;;2.58;;
47153;SDS011;32907;41.412;2.164;2023-07-31T12:42:06;7.63;;;2.50;;
47153;SDS011;32907;41.412;2.164;2023-07-31T12:44:34;10.48;;;2.78;;
47153;SDS011;32907;41.412;2.164;2023-07-31T12:47:02;5.47;;;2.60;;
47153;SDS011;32907;41.412;2.164;2023-07-31T12:49:31;8.00;;;2.55;;
47153;SDS011;32907;41.412;2.164;2023-07-31T12:51:59;7.20;;;2.20;;
47153;SDS011;32907;41.412;2.164;2023-07-31T12:54:28;8.57;;;3.15;;
47153;SDS011;32907;41.412;2.164;2023-07-31T12:56:56;8.00;;;3.15;;
47153;SDS011;32907;41.412;2.164;2023-07-31T12:59:25;7.38;;;2.47;;
47153;SDS011;32907;41.412;2.164;2023-07-31T13:01:53;6.65;;;2.53;;
47153;SDS011;32907;41.412;2.164;2023-07-31T13:04:23;4.75;;;2.72;;
47153;SDS011;32907;41.412;2.164;2023-07-31T13:06:51;5.68;;;2.13;;
47153;SDS011;32907;41.412;2.164;2023-07-31T13:09:19;7.95;;;2.75;;
47153;SDS011;32907;41.412;2.164;2023-07-31T13:11:46;7.55;;;2.70;;
47153;SDS011;32907;41.412;2.164;2023-07-31T13:14:14;12.35;;;2.95;;
47153;SDS011;32907;41.412;2.164;2023-07-31T13:16:42;6.78;;;2.67;;
47153;SDS011;32907;41.412;2.164;2023-07-31T13:19:10;11.23;;;2.83;;
47153;SDS011;32907;41.412;2.164;2023-07-31T13:21:38;7.85;;;2.60;;
47153;SDS011;32907;41.412;2.164;2023-07-31T13:24:08;7.38;;;3.13;;
47153;SDS011;32907;41.412;2.164;2023-07-31T13:26:38;7.60;;;2.70;;
47153;SDS011;32907;41.412;2.164;2023-07-31T13:29:06;6.55;;;2.55;;
47153;SDS011;32907;41.412;2.164;2023-07-31T13:31:34;7.80;;;2.65;;
47153;SDS011;32907;41.412;2.164;2023-07-31T13:34:02;10.15;;;2.65;;
47153;SDS011;32907;41.412;2.164;2023-07-31T13:36:30;6.88;;;2.40;;
47153;SDS011;32907;41.412;2.164;2023-07-31T13:38:58;8.90;;;2.83;;
47153;SDS011;32907;41.412;2.164;2023-07-31T13:41:26;8.32;;;2.90;;
47153;SDS011;32907;41.412;2.164;2023-07-31T13:43:54;8.40;;;2.85;;
47153;SDS011;32907;41.412;2.164;2023-07-31T13:46:22;12.38;;;2.80;;
47153;SDS011;32907;41.412;2.164;2023-07-31T13:48:51;7.63;;;2.85;;
47153;SDS011;32907;41.412;2.164;2023-07-31T13:51:23;6.35;;;2.70;;
47153;SDS011;32907;41.412;2.164;2023-07-31T13:53:50;8.07;;;2.85;;
47153;SDS011;32907;41.412;2.164;2023-07-31T13:56:18;7.50;;;2.65;;
47153;SDS011;32907;41.412;2.164;2023-07-31T13:58:46;6.40;;;2.50;;
47153;SDS011;32907;41.412;2.164;2023-07-31T14:01:14;6.05;;;2.42;;
47153;SDS011;32907;41.412;2.164;2023-07-31T14:03:42;10.73;;;3.45;;
47153;SDS011;32907;41.412;2.164;2023-07-31T14:06:13;8.52;;;2.28;;
47153;SDS011;32907;41.412;2.164;2023-07-31T14:08:41;7.43;;;2.65;;
47153;SDS011;32907;41.412;2.164;2023-07-31T14:11:09;6.88;;;2.92;;
47153;SDS011;32907;41.412;2.164;2023-07-31T14:13:37;6.93;;;2.30;;
47153;SDS011;32907;41.412;2.164;2023-07-31T14:16:05;7.43;;;3.00;;
47153;SDS011;32907;41.412;2.164;2023-07-31T14:18:33;4.68;;;2.20;;
47153;SDS011;32907;41.412;2.164;2023-07-31T14:21:02;6.25;;;2.40;;
47153;SDS011;32907;41.412;2.164;2023-07-31T14:23:29;6.70;;;2.75;;
47153;SDS011;32907;41.412;2.164;2023-07-31T14:25:57;6.43;;;2.60;;
47153;SDS011;32907;41.412;2.164;2023-07-31T14:28:25;4.72;;;2.28;;
47153;SDS011;32907;41.412;2.164;2023-07-31T14:30:53;9.15;;;2.53;;
47153;SDS011;32907;41.412;2.164;2023-07-31T14:33:21;9.73;;;3.05;;
47153;SDS011;32907;41.412;2.164;2023-07-31T14:35:49;6.28;;;2.47;;
47153;SDS011;32907;41.412;2.164;2023-07-31T14:38:17;10.88;;;3.22;;
47153;SDS011;32907;41.412;2.164;2023-07-31T14:40:45;7.85;;;3.00;;
47153;SDS011;32907;41.412;2.164;2023-07-31T14:43:13;8.73;;;2.63;;
47153;SDS011;32907;41.412;2.164;2023-07-31T14:45:41;7.22;;;2.95;;
47153;SDS011;32907;41.412;2.164;2023-07-31T14:48:09;8.35;;;2.88;;
47153;SDS011;32907;41.412;2.164;2023-07-31T14:50:37;7.65;;;3.30;;
47153;SDS011;32907;41.412;2.164;2023-07-31T14:53:05;4.82;;;2.45;;
47153;SDS011;32907;41.412;2.164;2023-07-31T14:55:33;13.23;;;3.28;;
47153;SDS011;32907;41.412;2.164;2023-07-31T14:58:01;9.82;;;2.75;;
47153;SDS011;32907;41.412;2.164;2023-07-31T15:00:30;7.18;;;3.22;;
47153;SDS011;32907;41.412;2.164;2023-07-31T15:02:58;9.00;;;2.95;;
47153;SDS011;32907;41.412;2.164;2023-07-31T15:05:26;6.15;;;2.72;;
47153;SDS011;32907;41.412;2.164;2023-07-31T15:07:54;9.32;;;2.80;;
47153;SDS011;32907;41.412;2.164;2023-07-31T15:10:21;7.65;;;2.70;;
47153;SDS011;32907;41.412;2.164;2023-07-31T15:12:49;8.18;;;2.78;;
47153;SDS011;32907;41.412;2.164;2023-07-31T15:15:17;10.32;;;2.60;;
47153;SDS011;32907;41.412;2.164;2023-07-31T15:17:45;6.78;;;3.17;;
47153;SDS011;32907;41.412;2.164;2023-07-31T15:20:13;6.32;;;2.85;;